Observations for RIETI, Italy (LIQN)

LIQN 201650Z VRB03KT CAVOK 09/02 Q1022  
LIQN 201550Z 32007KT CAVOK 12/03 Q1022  
LIQN 201450Z 31004KT CAVOK 13/03 Q1022  
LIQN 201350Z VRB03KT CAVOK 12/03 Q1022  
LIQN 201250Z 00000KT CAVOK 10/04 Q1023  
LIQN 201150Z VRB03KT 6000 FEW010 08/04 Q1023
LIQN 201132Z VRB02KT 5000 BR FEW010 05/03 Q1023
LIQN 201100Z VRB03KT 2500 BR SCT010 03/03 Q1024
LIQN 201050Z VRB02KT 1000 BR VV/// 02/02 Q1024  
LIQN 200950Z 00000KT 0300 FG VV/// 01/01 Q1024  
LIQN 200900Z VRB01KT 0200 FG VV/// 00/00 Q1024